createdAt,value
2017-03-08T00:00:03.407Z,0
2017-03-08T00:00:44.977Z,0
2017-03-08T00:01:25.631Z,0
2017-03-08T00:02:07.199Z,0
2017-03-08T00:02:47.860Z,0
2017-03-08T00:03:28.510Z,0
2017-03-08T00:04:09.159Z,0
2017-03-08T00:04:49.812Z,0
2017-03-08T00:05:30.466Z,0
2017-03-08T00:06:11.227Z,0
2017-03-08T00:06:51.774Z,0
2017-03-08T00:07:32.429Z,0
2017-03-08T00:08:13.073Z,0
2017-03-08T00:08:53.726Z,0
2017-03-08T00:09:34.283Z,0
2017-03-08T00:10:14.933Z,0
2017-03-08T00:10:55.489Z,0
2017-03-08T00:11:36.114Z,0
2017-03-08T00:12:16.685Z,0
2017-03-08T00:12:57.347Z,0
2017-03-08T00:13:37.863Z,0
2017-03-08T00:14:18.499Z,0
2017-03-08T00:14:59.085Z,0
2017-03-08T00:15:39.745Z,0
2017-03-08T00:16:20.292Z,0
2017-03-08T00:17:00.891Z,0
2017-03-08T00:17:41.455Z,0
2017-03-08T00:18:22.096Z,0
2017-03-08T00:19:02.745Z,0
2017-03-08T00:19:43.405Z,0
2017-03-08T00:20:24.107Z,0
2017-03-08T00:21:04.767Z,0
2017-03-08T00:21:45.417Z,0
2017-03-08T00:22:26.091Z,0
2017-03-08T00:23:06.723Z,0
2017-03-08T00:23:47.379Z,0
2017-03-08T00:24:28.035Z,0
2017-03-08T00:25:08.583Z,0
2017-03-08T00:25:49.159Z,0
2017-03-08T00:26:29.702Z,0
2017-03-08T00:27:10.259Z,0
2017-03-08T00:27:50.895Z,0
2017-03-08T00:28:31.542Z,0
2017-03-08T00:29:12.197Z,0
2017-03-08T00:29:52.755Z,0
2017-03-08T00:30:33.392Z,0
2017-03-08T00:31:13.959Z,0
2017-03-08T00:31:54.550Z,0
2017-03-08T00:32:35.143Z,0
2017-03-08T00:33:15.806Z,0
2017-03-08T00:33:56.356Z,0
2017-03-08T00:34:36.981Z,0
2017-03-08T00:35:17.546Z,0
2017-03-08T00:35:58.201Z,0
2017-03-08T00:36:38.769Z,0
2017-03-08T00:37:19.422Z,0
2017-03-08T00:38:00.072Z,0
2017-03-08T00:38:40.723Z,0
2017-03-08T00:39:21.378Z,0
2017-03-08T00:40:01.956Z,0
2017-03-08T00:40:42.562Z,0
2017-03-08T00:41:23.135Z,0
2017-03-08T00:42:03.702Z,0
2017-03-08T00:42:44.324Z,0
2017-03-08T00:43:24.922Z,0
2017-03-08T00:44:05.465Z,0
2017-03-08T00:44:46.092Z,0
2017-03-08T00:45:26.741Z,0
2017-03-08T00:46:08.313Z,0
2017-03-08T00:46:48.963Z,0
2017-03-08T00:47:29.634Z,0
2017-03-08T00:48:10.273Z,0
2017-03-08T00:48:50.929Z,0
2017-03-08T00:49:31.577Z,0
2017-03-08T00:50:12.234Z,0
2017-03-08T00:50:53.912Z,0
2017-03-08T00:51:34.559Z,0
2017-03-08T00:52:15.216Z,0
2017-03-08T00:52:55.878Z,0
2017-03-08T00:53:36.513Z,0
2017-03-08T00:54:17.171Z,0
2017-03-08T00:54:57.860Z,0
2017-03-08T00:55:38.470Z,0
2017-03-08T00:56:19.046Z,0
2017-03-08T00:56:59.621Z,0
2017-03-08T00:57:40.236Z,0
2017-03-08T00:58:20.901Z,0
2017-03-08T00:59:01.535Z,0
2017-03-08T00:59:42.126Z,0
2017-03-08T01:00:22.684Z,0
2017-03-08T01:01:03.277Z,0
2017-03-08T01:01:43.836Z,0
2017-03-08T01:02:24.390Z,0
2017-03-08T01:03:04.982Z,0
2017-03-08T01:03:45.622Z,0
2017-03-08T01:04:26.271Z,0
2017-03-08T01:05:06.818Z,0
2017-03-08T01:05:47.414Z,0
2017-03-08T01:06:28.077Z,0
2017-03-08T01:07:08.763Z,0
2017-03-08T01:07:49.404Z,0
2017-03-08T01:08:30.073Z,0
2017-03-08T01:09:10.723Z,0
2017-03-08T01:09:51.375Z,0
2017-03-08T01:10:32.030Z,0
2017-03-08T01:11:12.683Z,0
2017-03-08T01:11:53.355Z,0
2017-03-08T01:12:33.988Z,0
2017-03-08T01:13:14.646Z,0
2017-03-08T01:13:55.290Z,0
2017-03-08T01:14:35.940Z,0
2017-03-08T01:15:16.475Z,0
2017-03-08T01:15:57.023Z,0
2017-03-08T01:16:37.697Z,0
2017-03-08T01:17:18.237Z,0
2017-03-08T01:17:58.901Z,0
2017-03-08T01:18:39.555Z,0
2017-03-08T01:19:20.107Z,0
2017-03-08T01:20:00.766Z,0
2017-03-08T01:20:41.418Z,0
2017-03-08T01:21:22.049Z,0
2017-03-08T01:22:02.656Z,0
2017-03-08T01:22:43.281Z,0
2017-03-08T01:23:23.930Z,0
2017-03-08T01:24:05.490Z,0
2017-03-08T01:24:46.149Z,0
2017-03-08T01:25:26.707Z,0
2017-03-08T01:26:07.347Z,0
2017-03-08T01:26:47.913Z,0
2017-03-08T01:27:28.495Z,0
2017-03-08T01:28:09.112Z,0
2017-03-08T01:28:49.765Z,0
2017-03-08T01:29:30.309Z,0
2017-03-08T01:30:10.893Z,0
2017-03-08T01:30:51.544Z,0
2017-03-08T01:31:32.166Z,0
2017-03-08T01:32:12.700Z,0
2017-03-08T01:32:53.308Z,0
2017-03-08T01:33:33.901Z,0
2017-03-08T01:34:14.463Z,0
2017-03-08T01:34:55.043Z,0
2017-03-08T01:35:35.664Z,0
2017-03-08T01:36:16.268Z,0
2017-03-08T01:36:56.944Z,0
2017-03-08T01:37:37.569Z,0
2017-03-08T01:38:19.143Z,0
2017-03-08T01:38:59.820Z,0
2017-03-08T01:39:40.361Z,0
2017-03-08T01:40:20.998Z,0
2017-03-08T01:41:01.640Z,0
2017-03-08T01:41:42.271Z,0
2017-03-08T01:42:22.801Z,0
2017-03-08T01:43:03.407Z,0
2017-03-08T01:43:44.025Z,0
2017-03-08T01:44:24.676Z,0
2017-03-08T01:45:05.208Z,0
2017-03-08T01:45:45.904Z,0
2017-03-08T01:46:26.534Z,0
2017-03-08T01:47:07.188Z,0
2017-03-08T01:47:47.836Z,0
2017-03-08T01:48:28.492Z,0
2017-03-08T01:49:09.147Z,0
2017-03-08T01:49:49.809Z,0
2017-03-08T01:50:30.450Z,0
2017-03-08T01:51:11.116Z,0
2017-03-08T01:51:51.771Z,0
2017-03-08T01:52:32.410Z,0
2017-03-08T01:53:12.963Z,0
2017-03-08T01:53:53.623Z,0
2017-03-08T01:54:34.268Z,0
2017-03-08T01:55:14.903Z,0
2017-03-08T01:55:55.574Z,0
2017-03-08T01:56:36.220Z,0
2017-03-08T01:57:16.876Z,0
2017-03-08T01:57:57.526Z,0
2017-03-08T01:58:38.174Z,0
2017-03-08T01:59:18.836Z,0
2017-03-08T01:59:59.491Z,0
2017-03-08T02:00:40.142Z,0
2017-03-08T02:01:20.716Z,0
2017-03-08T02:02:01.345Z,0
2017-03-08T02:02:42.021Z,0
2017-03-08T02:03:22.579Z,0
2017-03-08T02:04:03.199Z,0
2017-03-08T02:04:43.851Z,0
2017-03-08T02:05:24.511Z,0
2017-03-08T02:06:05.162Z,0
2017-03-08T02:06:45.814Z,0
2017-03-08T02:07:26.365Z,0
2017-03-08T02:08:07.017Z,0
2017-03-08T02:08:47.668Z,0
2017-03-08T02:09:28.337Z,0
2017-03-08T02:10:08.899Z,0
2017-03-08T02:10:49.540Z,0
2017-03-08T02:11:31.199Z,0
2017-03-08T02:12:11.757Z,0
2017-03-08T02:12:52.436Z,0
2017-03-08T02:13:33.069Z,0
2017-03-08T02:14:13.626Z,0
2017-03-08T02:14:54.244Z,0
2017-03-08T02:15:34.815Z,0
2017-03-08T02:16:15.391Z,0
2017-03-08T02:16:55.950Z,0
2017-03-08T02:17:36.574Z,0
2017-03-08T02:18:17.237Z,0
2017-03-08T02:18:57.784Z,0
2017-03-08T02:19:38.371Z,0
2017-03-08T02:20:18.975Z,0
2017-03-08T02:20:59.651Z,0
2017-03-08T02:21:40.214Z,0
2017-03-08T02:22:20.834Z,0
2017-03-08T02:23:01.476Z,0
2017-03-08T02:23:42.134Z,0
2017-03-08T02:24:22.794Z,0
2017-03-08T02:25:03.462Z,0
2017-03-08T02:25:44.134Z,0
2017-03-08T02:26:24.752Z,0
2017-03-08T02:27:05.415Z,0
2017-03-08T02:27:46.055Z,0
2017-03-08T02:28:26.707Z,0
2017-03-08T02:29:07.368Z,0
2017-03-08T02:29:48.019Z,0
2017-03-08T02:30:28.664Z,0
2017-03-08T02:31:09.325Z,0
2017-03-08T02:31:49.963Z,0
2017-03-08T02:32:37.056Z,0
2017-03-08T02:33:17.744Z,0
2017-03-08T02:33:58.390Z,0
2017-03-08T02:34:39.045Z,0
2017-03-08T02:35:19.613Z,0
2017-03-08T02:36:00.300Z,0
2017-03-08T02:36:40.983Z,0
2017-03-08T02:37:21.655Z,0
2017-03-08T02:38:02.201Z,0
2017-03-08T02:38:42.806Z,0
2017-03-08T02:39:23.507Z,0
2017-03-08T02:40:04.165Z,0
2017-03-08T02:40:44.699Z,0
2017-03-08T02:41:25.409Z,0
2017-03-08T02:42:06.074Z,0
2017-03-08T02:42:46.634Z,0
2017-03-08T02:43:27.367Z,0
2017-03-08T02:44:08.043Z,0
2017-03-08T02:44:48.668Z,0
2017-03-08T02:45:29.212Z,0
2017-03-08T02:46:09.891Z,0
2017-03-08T02:46:50.548Z,0
2017-03-08T02:47:31.087Z,0
2017-03-08T02:48:11.847Z,0
2017-03-08T02:48:52.605Z,0
2017-03-08T02:49:33.255Z,0
2017-03-08T02:50:13.902Z,0
2017-03-08T02:50:54.668Z,0
2017-03-08T02:51:35.316Z,0
2017-03-08T02:52:15.966Z,0
2017-03-08T02:52:56.624Z,0
2017-03-08T02:53:37.179Z,0
2017-03-08T02:54:17.828Z,0
2017-03-08T02:54:58.488Z,0
2017-03-08T02:55:39.134Z,0
2017-03-08T02:56:19.891Z,0
2017-03-08T02:57:00.443Z,0
2017-03-08T02:57:41.098Z,0
2017-03-08T02:58:21.856Z,0
2017-03-08T02:59:02.422Z,0
2017-03-08T02:59:43.148Z,0
2017-03-08T03:00:23.806Z,0
2017-03-08T03:01:04.367Z,0
2017-03-08T03:01:45.068Z,0
2017-03-08T03:02:25.762Z,0
2017-03-08T03:03:06.521Z,0
2017-03-08T03:03:47.079Z,0
2017-03-08T03:04:27.779Z,0
2017-03-08T03:05:08.330Z,0
2017-03-08T03:05:49.051Z,0
2017-03-08T03:06:29.790Z,0
2017-03-08T03:07:10.542Z,0
2017-03-08T03:07:51.198Z,0
2017-03-08T03:08:31.950Z,0
2017-03-08T03:09:12.598Z,0
2017-03-08T03:09:53.359Z,0
2017-03-08T03:10:33.915Z,0
2017-03-08T03:11:14.601Z,0
2017-03-08T03:11:55.341Z,0
2017-03-08T03:12:36.074Z,0
2017-03-08T03:13:16.613Z,0
2017-03-08T03:13:57.218Z,0
2017-03-08T03:14:37.934Z,0
2017-03-08T03:15:18.702Z,0
2017-03-08T03:15:59.452Z,0
2017-03-08T03:16:40.031Z,0
2017-03-08T03:17:20.750Z,0
2017-03-08T03:18:01.406Z,0
2017-03-08T03:18:42.052Z,0
2017-03-08T03:19:22.815Z,0
2017-03-08T03:20:03.563Z,0
2017-03-08T03:20:44.327Z,0
2017-03-08T03:21:25.078Z,0
2017-03-08T03:22:06.763Z,0
2017-03-08T03:22:47.509Z,0
2017-03-08T03:23:28.257Z,0
2017-03-08T03:24:08.929Z,0
2017-03-08T03:24:49.559Z,0
2017-03-08T03:25:30.114Z,0
2017-03-08T03:26:10.819Z,0
2017-03-08T03:26:51.646Z,0
2017-03-08T03:27:33.401Z,0
2017-03-08T03:28:13.951Z,0
2017-03-08T03:28:54.684Z,0
2017-03-08T03:29:35.259Z,0
2017-03-08T03:30:15.917Z,0
2017-03-08T03:30:56.567Z,0
2017-03-08T03:31:37.341Z,0
2017-03-08T03:32:18.075Z,0
2017-03-08T03:32:58.839Z,0
2017-03-08T03:33:39.587Z,0
2017-03-08T03:34:20.342Z,0
2017-03-08T03:35:01.106Z,0
2017-03-08T03:35:41.680Z,0
2017-03-08T03:36:22.390Z,0
2017-03-08T03:37:03.158Z,0
2017-03-08T03:37:43.918Z,0
2017-03-08T03:38:24.496Z,0
2017-03-08T03:39:05.168Z,0
2017-03-08T03:39:45.861Z,0
2017-03-08T03:40:26.523Z,0
2017-03-08T03:41:07.092Z,0
2017-03-08T03:41:48.853Z,0
2017-03-08T03:42:29.612Z,0
2017-03-08T03:43:10.200Z,0
2017-03-08T03:43:50.931Z,0
2017-03-08T03:44:31.490Z,0
2017-03-08T03:45:12.108Z,0
2017-03-08T03:45:52.874Z,0
2017-03-08T03:46:33.446Z,0
2017-03-08T03:47:14.132Z,0
2017-03-08T03:47:54.824Z,0
2017-03-08T03:48:35.588Z,0
2017-03-08T03:49:16.165Z,0
2017-03-08T03:49:56.843Z,0
2017-03-08T03:50:37.545Z,0
2017-03-08T03:51:18.308Z,0
2017-03-08T03:51:59.055Z,0
2017-03-08T03:52:39.828Z,0
2017-03-08T03:53:20.573Z,0
2017-03-08T03:54:01.322Z,0
2017-03-08T03:54:42.081Z,0
2017-03-08T03:55:22.647Z,0
2017-03-08T03:56:03.395Z,0
2017-03-08T03:56:44.140Z,0
2017-03-08T03:57:24.898Z,0
2017-03-08T03:58:05.662Z,0
2017-03-08T03:58:46.414Z,0
2017-03-08T03:59:27.161Z,0
2017-03-08T04:00:07.921Z,0
2017-03-08T04:00:48.501Z,0
2017-03-08T04:01:29.223Z,0
2017-03-08T04:02:09.979Z,0
2017-03-08T04:02:50.565Z,0
2017-03-08T04:03:31.287Z,0
2017-03-08T04:04:12.050Z,0
2017-03-08T04:04:52.617Z,0
2017-03-08T04:05:33.366Z,0
2017-03-08T04:06:14.003Z,0
2017-03-08T04:06:54.799Z,0
2017-03-08T04:07:35.508Z,0
2017-03-08T04:08:16.275Z,0
2017-03-08T04:08:57.029Z,0
2017-03-08T04:09:38.813Z,0
2017-03-08T04:10:19.561Z,0
2017-03-08T04:11:00.318Z,0
2017-03-08T04:11:41.071Z,0
2017-03-08T04:12:21.825Z,0
2017-03-08T04:13:02.481Z,0
2017-03-08T04:13:43.139Z,0
2017-03-08T04:14:23.894Z,0
2017-03-08T04:15:04.645Z,0
2017-03-08T04:15:45.413Z,0
2017-03-08T04:16:26.156Z,0
2017-03-08T04:17:06.808Z,0
2017-03-08T04:17:47.475Z,0
2017-03-08T04:18:28.112Z,0
2017-03-08T04:19:08.773Z,0
2017-03-08T04:19:49.424Z,0
2017-03-08T04:20:29.996Z,0
2017-03-08T04:21:10.681Z,0
2017-03-08T04:21:51.288Z,0
2017-03-08T04:22:31.934Z,0
2017-03-08T04:23:12.501Z,0
2017-03-08T04:23:53.079Z,0
2017-03-08T04:24:33.696Z,0
2017-03-08T04:25:14.338Z,0
2017-03-08T04:25:54.903Z,0
2017-03-08T04:26:35.490Z,0
2017-03-08T04:27:17.126Z,0
2017-03-08T04:27:57.766Z,0
2017-03-08T04:28:38.329Z,0
2017-03-08T04:29:18.912Z,0
2017-03-08T04:29:59.536Z,0
2017-03-08T04:30:40.205Z,0
2017-03-08T04:31:20.783Z,0
2017-03-08T04:32:01.424Z,0
2017-03-08T04:32:42.028Z,0
2017-03-08T04:33:22.681Z,0
2017-03-08T04:34:03.245Z,0
2017-03-08T04:34:43.830Z,0
2017-03-08T04:35:24.431Z,0
2017-03-08T04:36:05.089Z,0
2017-03-08T04:36:45.749Z,0
2017-03-08T04:37:26.391Z,0
2017-03-08T04:38:08.079Z,0
2017-03-08T04:38:48.720Z,0
2017-03-08T04:39:29.381Z,0
2017-03-08T04:40:10.043Z,0
2017-03-08T04:40:50.606Z,0
2017-03-08T04:41:31.178Z,0
2017-03-08T04:42:11.779Z,0
2017-03-08T04:42:52.432Z,0
2017-03-08T04:43:33.015Z,0
2017-03-08T04:44:13.686Z,0
2017-03-08T04:44:54.308Z,0
2017-03-08T04:45:34.955Z,0
2017-03-08T04:46:15.504Z,0
2017-03-08T04:46:57.117Z,0
2017-03-08T04:47:37.725Z,0
2017-03-08T04:48:18.372Z,0
2017-03-08T04:48:58.931Z,0
2017-03-08T04:49:39.493Z,0
2017-03-08T04:50:20.138Z,0
2017-03-08T04:51:01.813Z,0
2017-03-08T04:51:42.473Z,0
2017-03-08T04:52:23.117Z,0
2017-03-08T04:53:03.782Z,0
2017-03-08T04:53:44.426Z,0
2017-03-08T04:54:25.075Z,0
2017-03-08T04:55:06.751Z,0
2017-03-08T04:55:47.373Z,0
2017-03-08T04:56:28.001Z,0
2017-03-08T04:57:08.614Z,0
2017-03-08T04:57:49.272Z,0
2017-03-08T04:58:29.816Z,0
2017-03-08T04:59:10.409Z,0
2017-03-08T04:59:51.015Z,0
2017-03-08T05:00:31.682Z,0
2017-03-08T05:01:12.325Z,0
2017-03-08T05:01:52.973Z,0
2017-03-08T05:02:33.628Z,0
2017-03-08T05:03:14.279Z,0
2017-03-08T05:03:54.935Z,0
2017-03-08T05:04:35.597Z,0
2017-03-08T05:05:16.160Z,0
2017-03-08T05:05:56.749Z,0
2017-03-08T05:06:37.414Z,0
2017-03-08T05:07:18.047Z,0
2017-03-08T05:07:58.710Z,0
2017-03-08T05:08:39.343Z,0
2017-03-08T05:09:20.001Z,0
2017-03-08T05:10:00.666Z,0
2017-03-08T05:10:41.324Z,0
2017-03-08T05:11:21.922Z,0
2017-03-08T05:12:02.575Z,0
2017-03-08T05:12:43.157Z,0
2017-03-08T05:13:23.823Z,0
2017-03-08T05:14:04.429Z,0
2017-03-08T05:14:46.097Z,0
2017-03-08T05:15:26.661Z,0
2017-03-08T05:16:07.307Z,0
2017-03-08T05:16:47.878Z,0
2017-03-08T05:17:28.506Z,0
2017-03-08T05:18:09.170Z,0
2017-03-08T05:18:49.832Z,0
2017-03-08T05:19:30.486Z,0
2017-03-08T05:20:11.124Z,0
2017-03-08T05:20:51.774Z,0
2017-03-08T05:21:32.348Z,0
2017-03-08T05:22:12.915Z,0
2017-03-08T05:22:53.538Z,0
2017-03-08T05:23:34.177Z,0
2017-03-08T05:24:14.741Z,0
2017-03-08T05:24:55.328Z,0
2017-03-08T05:25:35.931Z,0
2017-03-08T05:26:16.505Z,0
2017-03-08T05:26:57.201Z,0
2017-03-08T05:27:38.823Z,0
2017-03-08T05:28:19.473Z,0
2017-03-08T05:29:00.046Z,0
2017-03-08T05:29:40.616Z,0
2017-03-08T05:30:22.247Z,0
2017-03-08T05:31:02.904Z,0
2017-03-08T05:31:43.547Z,0
2017-03-08T05:32:24.207Z,4
2017-03-08T05:33:04.857Z,4
2017-03-08T05:33:45.518Z,4
2017-03-08T05:34:26.168Z,4
2017-03-08T05:35:06.814Z,4
2017-03-08T05:35:47.465Z,4
2017-03-08T05:36:28.129Z,0
2017-03-08T05:37:08.771Z,4
2017-03-08T05:37:49.333Z,4
2017-03-08T05:38:29.978Z,4
2017-03-08T05:39:10.630Z,4
2017-03-08T05:39:51.290Z,4
2017-03-08T05:40:31.935Z,4
2017-03-08T05:41:12.734Z,4
2017-03-08T05:41:53.492Z,4
2017-03-08T05:42:34.098Z,8
2017-03-08T05:43:14.757Z,8
2017-03-08T05:43:55.318Z,8
2017-03-08T05:44:35.906Z,8
2017-03-08T05:45:16.497Z,12
2017-03-08T05:45:57.166Z,8
2017-03-08T05:46:37.740Z,12
2017-03-08T05:47:18.359Z,12
2017-03-08T05:47:59.016Z,12
2017-03-08T05:48:39.590Z,16
2017-03-08T05:49:20.212Z,16
2017-03-08T05:50:00.863Z,16
2017-03-08T05:50:41.440Z,16
2017-03-08T05:51:22.000Z,16
2017-03-08T05:52:02.625Z,20
2017-03-08T05:52:43.190Z,20
2017-03-08T05:53:23.807Z,28
2017-03-08T05:54:04.388Z,28
2017-03-08T05:54:44.958Z,32
2017-03-08T05:55:25.611Z,36
2017-03-08T05:56:07.261Z,36
2017-03-08T05:56:47.819Z,40
2017-03-08T05:57:28.428Z,40
2017-03-08T05:58:09.124Z,48
2017-03-08T05:58:49.689Z,52
2017-03-08T05:59:30.318Z,56
2017-03-08T06:00:10.988Z,60
2017-03-08T06:00:51.632Z,60
2017-03-08T06:01:32.209Z,60
2017-03-08T06:02:12.784Z,60
2017-03-08T06:02:53.394Z,64
2017-03-08T06:03:34.040Z,64
2017-03-08T06:04:14.592Z,68
2017-03-08T06:04:55.227Z,72
2017-03-08T06:05:35.901Z,80
2017-03-08T06:06:16.540Z,84
2017-03-08T06:06:57.201Z,92
2017-03-08T06:07:37.854Z,96
2017-03-08T06:08:18.504Z,104
2017-03-08T06:08:59.159Z,112
2017-03-08T06:09:39.827Z,116
2017-03-08T06:10:20.465Z,120
2017-03-08T06:11:01.036Z,128
2017-03-08T06:11:41.656Z,136
2017-03-08T06:12:22.316Z,144
2017-03-08T06:13:02.878Z,148
2017-03-08T06:13:43.516Z,156
2017-03-08T06:14:24.085Z,160
2017-03-08T06:15:04.723Z,168
2017-03-08T06:15:45.377Z,172
2017-03-08T06:16:26.025Z,176
2017-03-08T06:17:06.678Z,180
2017-03-08T06:17:47.359Z,188
2017-03-08T06:18:27.994Z,188
2017-03-08T06:19:08.641Z,192
2017-03-08T06:19:49.304Z,200
2017-03-08T06:20:29.958Z,200
2017-03-08T06:21:10.510Z,204
2017-03-08T06:21:51.154Z,208
2017-03-08T06:22:31.807Z,212
2017-03-08T06:23:12.360Z,216
2017-03-08T06:23:53.011Z,224
2017-03-08T06:24:33.672Z,232
2017-03-08T06:25:14.223Z,244
2017-03-08T06:25:54.876Z,256
2017-03-08T06:26:35.508Z,272
2017-03-08T06:27:16.063Z,284
2017-03-08T06:27:56.612Z,296
2017-03-08T06:28:37.219Z,304
2017-03-08T06:29:17.829Z,312
2017-03-08T06:29:58.386Z,320
2017-03-08T06:30:38.934Z,328
2017-03-08T06:31:19.579Z,340
2017-03-08T06:32:00.158Z,352
2017-03-08T06:32:40.786Z,364
2017-03-08T06:33:21.426Z,372
2017-03-08T06:34:01.961Z,380
2017-03-08T06:34:42.646Z,384
2017-03-08T06:35:23.289Z,392
2017-03-08T06:36:03.849Z,400
2017-03-08T06:36:44.487Z,400
2017-03-08T06:37:25.154Z,404
2017-03-08T06:38:05.716Z,404
2017-03-08T06:38:46.296Z,408
2017-03-08T06:39:26.935Z,404
2017-03-08T06:40:07.562Z,412
2017-03-08T06:40:48.151Z,416
2017-03-08T06:41:28.758Z,420
2017-03-08T06:42:09.407Z,428
2017-03-08T06:42:49.971Z,432
2017-03-08T06:43:30.602Z,432
2017-03-08T06:44:11.271Z,432
2017-03-08T06:44:51.822Z,428
2017-03-08T06:45:32.464Z,428
2017-03-08T06:46:13.132Z,432
2017-03-08T06:46:53.774Z,444
2017-03-08T06:47:34.433Z,452
2017-03-08T06:48:15.078Z,464
2017-03-08T06:48:55.626Z,472
2017-03-08T06:49:36.277Z,488
2017-03-08T06:50:16.944Z,488
2017-03-08T06:50:57.589Z,496
2017-03-08T06:51:38.237Z,496
2017-03-08T06:52:18.903Z,500
2017-03-08T06:52:59.555Z,508
2017-03-08T06:53:40.238Z,508
2017-03-08T06:54:20.860Z,508
2017-03-08T06:55:01.515Z,516
2017-03-08T06:55:42.064Z,524
2017-03-08T06:56:22.646Z,536
2017-03-08T06:57:03.282Z,556
2017-03-08T06:57:43.850Z,576
2017-03-08T06:58:25.441Z,612
2017-03-08T06:59:06.028Z,644
2017-03-08T06:59:46.707Z,676
2017-03-08T07:00:27.259Z,704
2017-03-08T07:01:07.808Z,748
2017-03-08T07:01:48.384Z,780
2017-03-08T07:02:30.030Z,812
2017-03-08T07:03:10.598Z,836
2017-03-08T07:03:51.271Z,856
2017-03-08T07:04:31.900Z,868
2017-03-08T07:05:12.484Z,876
2017-03-08T07:05:53.203Z,880
2017-03-08T07:06:33.858Z,888
2017-03-08T07:07:14.504Z,904
2017-03-08T07:07:56.229Z,932
2017-03-08T07:08:36.892Z,968
2017-03-08T07:09:17.677Z,1008
2017-03-08T07:09:58.347Z,1072
2017-03-08T07:10:39.016Z,1132
2017-03-08T07:11:19.700Z,1192
2017-03-08T07:12:00.444Z,1252
2017-03-08T07:12:41.208Z,1308
2017-03-08T07:13:21.809Z,1360
2017-03-08T07:14:02.461Z,1404
2017-03-08T07:14:44.160Z,1448
2017-03-08T07:15:24.824Z,1488
2017-03-08T07:16:05.408Z,1520
2017-03-08T07:16:46.080Z,1540
2017-03-08T07:17:26.746Z,1568
2017-03-08T07:18:07.305Z,1588
2017-03-08T07:18:47.981Z,1600
2017-03-08T07:19:28.598Z,1624
2017-03-08T07:20:09.157Z,1644
2017-03-08T07:20:49.801Z,1668
2017-03-08T07:21:30.488Z,1692
2017-03-08T07:22:11.121Z,1716
2017-03-08T07:22:51.658Z,1732
2017-03-08T07:23:32.309Z,1740
2017-03-08T07:24:12.964Z,1744
2017-03-08T07:24:53.508Z,1740
2017-03-08T07:25:34.096Z,1720
2017-03-08T07:26:14.721Z,1700
2017-03-08T07:26:55.380Z,1684
2017-03-08T07:27:35.951Z,1628
2017-03-08T07:28:16.530Z,1568
2017-03-08T07:28:58.149Z,1496
2017-03-08T07:29:38.707Z,1420
2017-03-08T07:30:19.279Z,1340
2017-03-08T07:30:59.902Z,1264
2017-03-08T07:31:40.553Z,1204
2017-03-08T07:32:21.207Z,1144
2017-03-08T07:33:01.889Z,1112
2017-03-08T07:33:42.513Z,1084
2017-03-08T07:34:23.323Z,1072
2017-03-08T07:35:03.960Z,1068
2017-03-08T07:35:44.583Z,1064
2017-03-08T07:36:25.227Z,1064
2017-03-08T07:37:05.827Z,1068
2017-03-08T07:37:46.432Z,1076
2017-03-08T07:38:28.014Z,1072
2017-03-08T07:39:08.561Z,1072
2017-03-08T07:39:49.195Z,1068
2017-03-08T07:40:29.865Z,1060
2017-03-08T07:41:10.416Z,1056
2017-03-08T07:41:51.059Z,1048
2017-03-08T07:42:31.714Z,1048
2017-03-08T07:43:12.367Z,1044
2017-03-08T07:43:53.004Z,1044
2017-03-08T07:44:33.659Z,1048
2017-03-08T07:45:14.222Z,1060
2017-03-08T07:45:54.870Z,1064
2017-03-08T07:46:35.517Z,1072
2017-03-08T07:47:16.087Z,1080
2017-03-08T07:47:56.735Z,1084
2017-03-08T07:48:37.390Z,1092
2017-03-08T07:49:18.062Z,1100
2017-03-08T07:49:58.713Z,1108
2017-03-08T07:50:39.364Z,1108
2017-03-08T07:51:19.997Z,1120
2017-03-08T07:52:00.655Z,1128
2017-03-08T07:52:41.306Z,1136
2017-03-08T07:53:21.969Z,1148
2017-03-08T07:54:02.640Z,1156
2017-03-08T07:54:43.296Z,1168
2017-03-08T07:55:24.021Z,1196
2017-03-08T07:56:04.680Z,1212
2017-03-08T07:56:45.349Z,1224
2017-03-08T07:57:25.876Z,1240
2017-03-08T07:58:06.541Z,1248
2017-03-08T07:58:47.194Z,1260
2017-03-08T07:59:27.767Z,1268
2017-03-08T08:00:08.383Z,1288
2017-03-08T08:00:48.937Z,1284
2017-03-08T08:01:29.551Z,1292
2017-03-08T08:02:10.133Z,1304
2017-03-08T08:02:50.701Z,1316
2017-03-08T08:03:31.362Z,1320
2017-03-08T08:04:11.915Z,1324
2017-03-08T08:04:52.502Z,1320
2017-03-08T08:05:33.098Z,1312
2017-03-08T08:06:13.776Z,1304
2017-03-08T08:06:54.440Z,1296
2017-03-08T08:07:35.100Z,1284
2017-03-08T08:08:15.731Z,1280
2017-03-08T08:08:56.368Z,1284
2017-03-08T08:09:36.932Z,1284
2017-03-08T08:10:18.641Z,1288
2017-03-08T08:10:59.232Z,1296
2017-03-08T08:11:40.000Z,1304
2017-03-08T08:12:20.650Z,1312
2017-03-08T08:13:01.332Z,1320
2017-03-08T08:13:41.997Z,1324
2017-03-08T08:14:27.372Z,1328
2017-03-08T08:15:08.014Z,1332
2017-03-08T08:15:48.686Z,1340
2017-03-08T08:16:29.317Z,1344
2017-03-08T08:17:12.028Z,1352
2017-03-08T08:17:52.710Z,1364
2017-03-08T08:18:33.537Z,1384
2017-03-08T08:19:14.276Z,1424
2017-03-08T08:19:55.054Z,1440
2017-03-08T08:20:36.788Z,1460
2017-03-08T08:21:17.360Z,1484
2017-03-08T08:21:58.029Z,1496
2017-03-08T08:22:38.696Z,1512
2017-03-08T08:23:19.297Z,1532
2017-03-08T08:24:00.000Z,1552
2017-03-08T08:24:45.423Z,1572
2017-03-08T08:25:26.084Z,1588
2017-03-08T08:26:06.662Z,1608
2017-03-08T08:26:47.357Z,1628
2017-03-08T08:27:28.028Z,1648
2017-03-08T08:28:08.675Z,1668
2017-03-08T08:28:49.246Z,1680
2017-03-08T08:29:29.825Z,1688
2017-03-08T08:30:10.423Z,1696
2017-03-08T08:30:50.997Z,1700
2017-03-08T08:31:31.536Z,1700
2017-03-08T08:32:12.163Z,1692
2017-03-08T08:32:52.841Z,1692
2017-03-08T08:33:33.390Z,1672
2017-03-08T08:34:13.956Z,1664
2017-03-08T08:34:54.597Z,1656
2017-03-08T08:35:35.159Z,1668
2017-03-08T08:36:15.787Z,1660
2017-03-08T08:36:56.440Z,1672
2017-03-08T08:37:37.106Z,1684
2017-03-08T08:38:17.747Z,1700
2017-03-08T08:38:58.415Z,1720
2017-03-08T08:39:39.067Z,1732
2017-03-08T08:40:20.746Z,1740
2017-03-08T08:41:01.383Z,1744
2017-03-08T08:41:42.039Z,1748
2017-03-08T08:42:22.694Z,1756
2017-03-08T08:43:03.338Z,1756
2017-03-08T08:43:43.979Z,1756
2017-03-08T08:44:24.636Z,1748
2017-03-08T08:45:05.325Z,1736
2017-03-08T08:45:46.968Z,1732
2017-03-08T08:46:27.515Z,1696
2017-03-08T08:47:08.085Z,1676
2017-03-08T08:47:48.647Z,1656
2017-03-08T08:48:29.237Z,1628
2017-03-08T08:49:09.855Z,1596
2017-03-08T08:49:50.499Z,1572
2017-03-08T08:50:31.086Z,1544
2017-03-08T08:51:11.740Z,1516
2017-03-08T08:51:52.348Z,1496
2017-03-08T08:52:32.895Z,1496
2017-03-08T08:53:13.532Z,1516
2017-03-08T08:53:54.210Z,1496
2017-03-08T08:54:34.870Z,1488
2017-03-08T08:55:15.520Z,1488
2017-03-08T08:55:56.175Z,1492
2017-03-08T08:56:36.726Z,1504
2017-03-08T08:57:17.278Z,1516
2017-03-08T08:57:57.900Z,1556
2017-03-08T08:58:38.480Z,1572
2017-03-08T08:59:19.019Z,1580
2017-03-08T08:59:59.664Z,1612
2017-03-08T09:00:40.336Z,1628
2017-03-08T09:01:20.907Z,1648
2017-03-08T09:02:01.528Z,1656
2017-03-08T09:02:42.088Z,1656
2017-03-08T09:03:22.683Z,1652
2017-03-08T09:04:03.292Z,1652
2017-03-08T09:04:43.948Z,1644
2017-03-08T09:05:24.469Z,1672
2017-03-08T09:06:05.106Z,1708
2017-03-08T09:06:45.699Z,1732
2017-03-08T09:07:26.343Z,1764
2017-03-08T09:08:06.901Z,1792
2017-03-08T09:08:47.506Z,1824
2017-03-08T09:09:28.104Z,1848
2017-03-08T09:10:08.762Z,1868
2017-03-08T09:10:49.303Z,1904
2017-03-08T09:11:29.908Z,1940
2017-03-08T09:12:10.561Z,1960
2017-03-08T09:12:51.205Z,1996
2017-03-08T09:13:31.893Z,2000
2017-03-08T09:14:12.523Z,2020
2017-03-08T09:14:53.184Z,2020
2017-03-08T09:15:33.844Z,2004
2017-03-08T09:16:14.521Z,2004
2017-03-08T09:16:55.186Z,1992
2017-03-08T09:17:35.735Z,1976
2017-03-08T09:18:16.384Z,1956
2017-03-08T09:18:57.040Z,1952
2017-03-08T09:19:37.591Z,1972
2017-03-08T09:20:18.228Z,1988
2017-03-08T09:20:58.801Z,1980
2017-03-08T09:21:39.344Z,2000
2017-03-08T09:22:19.929Z,2004
2017-03-08T09:23:01.554Z,2016
2017-03-08T09:23:42.121Z,2060
2017-03-08T09:24:22.665Z,2080
2017-03-08T09:25:03.301Z,2084
2017-03-08T09:25:43.875Z,2100
2017-03-08T09:26:24.525Z,2128
2017-03-08T09:27:05.057Z,2152
2017-03-08T09:27:45.630Z,2180
2017-03-08T09:28:26.286Z,2188
2017-03-08T09:29:06.898Z,2212
2017-03-08T09:29:47.484Z,2244
2017-03-08T09:30:28.142Z,2280
2017-03-08T09:31:08.681Z,2308
2017-03-08T09:31:49.349Z,2332
2017-03-08T09:32:31.031Z,2364
2017-03-08T09:33:11.662Z,2388
2017-03-08T09:33:52.320Z,2432
2017-03-08T09:34:32.962Z,2464
2017-03-08T09:35:13.629Z,2448
2017-03-08T09:35:54.283Z,2452
2017-03-08T09:36:35.855Z,2452
2017-03-08T09:37:16.404Z,2444
2017-03-08T09:37:56.994Z,2440
2017-03-08T09:38:37.723Z,2432
2017-03-08T09:39:18.433Z,2428